createdAt,value
2019-01-25T00:00:15.049Z,23.03
2019-01-25T00:05:12.165Z,22.23
2019-01-25T00:10:09.505Z,21.77
2019-01-25T00:15:10.569Z,23.73
2019-01-25T00:20:10.815Z,22.10
2019-01-25T00:25:08.607Z,22.80
2019-01-25T00:30:18.423Z,23.47
2019-01-25T00:35:15.336Z,22.00
2019-01-25T00:40:18.519Z,23.10
2019-01-25T00:45:15.735Z,21.97
2019-01-25T00:50:16.883Z,22.83
2019-01-25T00:55:13.782Z,22.27
2019-01-25T01:00:25.742Z,22.70
2019-01-25T01:05:23.143Z,25.23
2019-01-25T01:10:20.803Z,20.37
2019-01-25T01:15:18.225Z,24.37
2019-01-25T01:20:17.886Z,23.83
2019-01-25T01:25:14.777Z,22.20
2019-01-25T01:30:21.173Z,23.03
2019-01-25T01:35:18.053Z,23.27
2019-01-25T01:40:21.970Z,22.90
2019-01-25T01:45:17.425Z,22.57
2019-01-25T01:50:16.857Z,23.10
2019-01-25T01:55:13.911Z,23.77
2019-01-25T02:00:18.105Z,23.27
2019-01-25T02:05:15.009Z,22.97
2019-01-25T02:10:29.338Z,23.40
2019-01-25T02:15:23.163Z,24.57
2019-01-25T02:20:23.424Z,24.37
2019-01-25T02:25:20.416Z,23.40
2019-01-25T02:30:20.373Z,24.13
2019-01-25T02:35:17.265Z,24.73
2019-01-25T02:40:20.013Z,23.53
2019-01-25T02:45:16.950Z,23.10
2019-01-25T02:50:16.495Z,24.37
2019-01-25T02:55:14.888Z,23.13
2019-01-25T03:00:20.653Z,24.13
2019-01-25T03:05:19.645Z,24.67
2019-01-25T03:10:19.281Z,23.97
2019-01-25T03:15:19.294Z,23.00
2019-01-25T03:20:17.154Z,24.80
2019-01-25T03:25:20.871Z,23.77
2019-01-25T03:30:20.918Z,23.93
2019-01-25T03:35:20.989Z,22.97
2019-01-25T03:40:21.064Z,23.00
2019-01-25T03:45:19.373Z,24.30
2019-01-25T03:50:23.435Z,21.93
2019-01-25T03:55:20.936Z,24.50
2019-01-25T04:00:21.929Z,23.50
2019-01-25T04:05:18.947Z,24.50
2019-01-25T04:10:28.521Z,24.13
2019-01-25T04:15:30.775Z,23.07
2019-01-25T04:20:28.971Z,22.97
2019-01-25T04:25:25.901Z,22.50
2019-01-25T04:30:28.614Z,22.40
2019-01-25T04:35:25.659Z,24.33
2019-01-25T04:40:22.608Z,21.87
2019-01-25T04:45:21.546Z,23.63
2019-01-25T04:50:22.995Z,22.37
2019-01-25T04:55:25.291Z,21.90
2019-01-25T05:00:22.889Z,21.87
2019-01-25T05:05:20.062Z,23.97
2019-01-25T05:10:17.053Z,24.70
2019-01-25T05:15:13.954Z,24.20
2019-01-25T05:20:10.906Z,24.33
2019-01-25T05:25:07.822Z,22.27
2019-01-25T05:30:10.210Z,22.93
2019-01-25T05:35:07.291Z,25.07
2019-01-25T05:40:08.122Z,25.33
2019-01-25T05:45:12.845Z,23.20
2019-01-25T05:50:12.263Z,23.73
2019-01-25T05:55:21.421Z,23.03
2019-01-25T06:00:22.968Z,23.23
2019-01-25T06:05:20.856Z,22.10
2019-01-25T06:10:17.774Z,25.33
2019-01-25T06:15:14.737Z,30.53
2019-01-25T06:20:12.129Z,51.50
2019-01-25T06:25:09.240Z,73.87
2019-01-25T06:30:12.925Z,266.67
2019-01-25T06:35:11.249Z,100.70
2019-01-25T06:40:13.450Z,59.63
2019-01-25T06:45:11.177Z,62.83
2019-01-25T06:50:12.565Z,57.60
2019-01-25T06:55:09.790Z,68.33
2019-01-25T07:00:17.216Z,54.43
2019-01-25T07:05:14.161Z,51.73
2019-01-25T07:10:15.782Z,46.57
2019-01-25T07:15:15.075Z,61.43
2019-01-25T07:20:14.550Z,43.97
2019-01-25T07:25:13.874Z,40.73
2019-01-25T07:30:14.944Z,53.10
2019-01-25T07:35:12.037Z,37.30
2019-01-25T07:40:10.429Z,40.57
2019-01-25T07:45:12.989Z,38.00
2019-01-25T07:50:11.318Z,35.47
2019-01-25T07:55:11.004Z,37.17
2019-01-25T08:00:15.786Z,32.70
2019-01-25T08:05:12.961Z,30.90
2019-01-25T08:10:21.185Z,28.67
2019-01-25T08:15:21.377Z,26.47
2019-01-25T08:20:18.630Z,24.70
2019-01-25T08:25:15.732Z,24.03
2019-01-25T08:30:24.368Z,22.60
2019-01-25T08:35:21.645Z,23.40
2019-01-25T08:40:18.832Z,40.20
2019-01-25T08:45:17.301Z,41.40
2019-01-25T08:50:26.041Z,48.17
2019-01-25T08:55:22.964Z,31.77
2019-01-25T09:00:24.443Z,19.70
2019-01-25T09:05:21.628Z,23.80
2019-01-25T09:10:22.975Z,19.70
2019-01-25T09:15:29.656Z,21.67
2019-01-25T09:20:26.806Z,19.73
2019-01-25T09:25:23.768Z,20.33
2019-01-25T09:30:24.888Z,18.97
2019-01-25T09:35:21.949Z,21.83
2019-01-25T09:40:23.830Z,19.27
2019-01-25T09:45:21.380Z,22.70
2019-01-25T09:50:21.557Z,20.77
2019-01-25T09:55:24.850Z,22.67
2019-01-25T10:00:30.166Z,21.87
2019-01-25T10:05:27.818Z,21.73
2019-01-25T10:10:24.775Z,21.30
2019-01-25T10:15:28.027Z,22.17
2019-01-25T10:20:25.050Z,24.13
2019-01-25T10:25:22.029Z,22.63
2019-01-25T10:30:26.981Z,24.33
2019-01-25T10:35:23.882Z,24.07
2019-01-25T10:40:22.349Z,21.83
2019-01-25T10:45:29.185Z,26.37
2019-01-25T10:50:26.086Z,25.03
2019-01-25T10:55:23.074Z,22.20
2019-01-25T11:00:22.339Z,25.50
2019-01-25T11:05:22.782Z,22.60
2019-01-25T11:10:19.814Z,22.20
2019-01-25T11:15:22.500Z,20.53
2019-01-25T11:20:22.716Z,23.23
2019-01-25T11:25:26.817Z,24.80
2019-01-25T11:30:23.731Z,25.20
2019-01-25T11:35:20.793Z,23.03
2019-01-25T11:40:22.095Z,21.60
2019-01-25T11:45:19.054Z,22.57
2019-01-25T11:50:20.246Z,21.67
2019-01-25T11:55:18.185Z,24.60
2019-01-25T12:00:24.046Z,22.07
2019-01-25T12:05:23.368Z,22.50
2019-01-25T12:10:29.888Z,25.57
2019-01-25T12:15:27.795Z,20.97
2019-01-25T12:20:27.633Z,20.83
2019-01-25T12:25:24.572Z,21.77
2019-01-25T12:30:26.064Z,21.67
2019-01-25T12:35:24.579Z,22.30
2019-01-25T12:40:21.630Z,25.30
2019-01-25T12:45:24.924Z,24.60
2019-01-25T12:50:26.015Z,23.47
2019-01-25T12:55:23.963Z,24.10
2019-01-25T13:00:23.571Z,24.60
2019-01-25T13:05:21.595Z,24.70
2019-01-25T13:10:24.668Z,26.97
2019-01-25T13:15:21.985Z,26.40
2019-01-25T13:20:25.159Z,26.60
2019-01-25T13:25:22.311Z,25.80
2019-01-25T13:30:28.607Z,24.67
2019-01-25T13:35:25.618Z,26.93
2019-01-25T13:40:24.953Z,26.07
2019-01-25T13:45:22.701Z,28.07
2019-01-25T13:50:24.386Z,24.93
2019-01-25T13:55:21.380Z,30.77
2019-01-25T14:00:32.986Z,34.00
2019-01-25T14:05:31.002Z,27.67
2019-01-25T14:10:33.856Z,29.50
2019-01-25T14:15:30.749Z,30.00
2019-01-25T14:20:32.371Z,29.57
2019-01-25T14:25:29.774Z,32.73
2019-01-25T14:30:36.847Z,30.90
2019-01-25T14:35:33.965Z,34.43
2019-01-25T14:40:30.927Z,32.77
2019-01-25T14:45:28.025Z,30.17
2019-01-25T14:50:28.615Z,27.07
2019-01-25T14:55:25.521Z,32.10
2019-01-25T15:00:22.466Z,31.83
2019-01-25T15:05:19.764Z,33.67
2019-01-25T15:10:19.944Z,33.83
2019-01-25T15:15:17.024Z,31.87
2019-01-25T15:20:17.909Z,40.30
2019-01-25T15:25:16.016Z,30.77
2019-01-25T15:30:19.732Z,31.57
2019-01-25T15:35:19.004Z,33.70
2019-01-25T15:40:18.590Z,35.27
2019-01-25T15:45:20.213Z,34.30
2019-01-25T15:50:24.031Z,32.30
2019-01-25T15:55:21.254Z,31.57
2019-01-25T16:00:21.926Z,35.60
2019-01-25T16:05:20.399Z,32.97
2019-01-25T16:10:22.233Z,33.20
2019-01-25T16:15:25.415Z,37.07
2019-01-25T16:20:22.524Z,36.23
2019-01-25T16:25:27.338Z,37.77
2019-01-25T16:30:27.732Z,34.43
2019-01-25T16:35:24.864Z,36.30
2019-01-25T16:40:28.370Z,38.63
2019-01-25T16:45:30.775Z,36.50
2019-01-25T16:50:27.717Z,40.60
2019-01-25T16:55:24.670Z,38.00
2019-01-25T17:00:36.909Z,38.30
2019-01-25T17:05:34.242Z,41.57
2019-01-25T17:10:31.741Z,39.80
2019-01-25T17:15:28.970Z,38.67
2019-01-25T17:20:27.827Z,38.33
2019-01-25T17:25:25.415Z,41.33
2019-01-25T17:30:27.824Z,40.77
2019-01-25T17:35:24.828Z,41.10
2019-01-25T17:40:25.705Z,35.73
2019-01-25T17:45:22.621Z,39.83
2019-01-25T17:50:20.150Z,38.97
2019-01-25T17:55:17.515Z,39.80
2019-01-25T18:00:23.936Z,39.77
2019-01-25T18:05:20.957Z,40.33
2019-01-25T18:10:21.935Z,35.43
2019-01-25T18:15:19.293Z,37.33
2019-01-25T18:20:18.836Z,38.40
2019-01-25T18:25:38.846Z,40.97
2019-01-25T18:30:50.023Z,38.57
2019-01-25T18:35:47.065Z,39.83
2019-01-25T18:40:44.032Z,38.83
2019-01-25T18:45:40.987Z,41.73
2019-01-25T18:50:37.921Z,41.20
2019-01-25T18:55:34.822Z,39.90
2019-01-25T19:00:32.005Z,38.57
2019-01-25T19:05:28.900Z,44.27
2019-01-25T19:10:29.188Z,42.63
2019-01-25T19:15:29.309Z,46.60
2019-01-25T19:20:26.502Z,46.87
2019-01-25T19:25:23.545Z,42.93
2019-01-25T19:30:37.249Z,43.67
2019-01-25T19:35:34.698Z,41.37
2019-01-25T19:40:34.056Z,49.13
2019-01-25T19:45:30.962Z,47.50
2019-01-25T19:50:27.916Z,49.50
2019-01-25T19:55:30.810Z,44.77
2019-01-25T20:00:43.653Z,37.83
2019-01-25T20:05:41.089Z,41.60
2019-01-25T20:10:38.044Z,42.30
2019-01-25T20:15:34.958Z,41.20
2019-01-25T20:20:36.101Z,40.50
2019-01-25T20:25:33.430Z,42.10
2019-01-25T20:30:32.639Z,39.63
2019-01-25T20:35:32.940Z,41.30
2019-01-25T20:40:30.027Z,41.27
2019-01-25T20:45:36.396Z,42.00
2019-01-25T20:50:35.434Z,44.60
2019-01-25T20:55:32.347Z,42.63
2019-01-25T21:00:33.273Z,48.57
2019-01-25T21:05:30.521Z,45.37
2019-01-25T21:10:27.698Z,49.80
2019-01-25T21:15:26.834Z,48.87
2019-01-25T21:20:40.180Z,45.40
2019-01-25T21:25:37.400Z,42.30
2019-01-25T21:30:36.179Z,42.67
2019-01-25T21:35:33.077Z,45.70
2019-01-25T21:40:32.536Z,43.87
2019-01-25T21:45:32.531Z,46.23
2019-01-25T21:50:36.919Z,45.27
2019-01-25T21:55:33.834Z,45.77
2019-01-25T22:00:33.594Z,50.10
2019-01-25T22:05:30.573Z,44.17
2019-01-25T22:10:33.966Z,49.27
2019-01-25T22:15:31.260Z,48.70
2019-01-25T22:20:29.222Z,47.63
2019-01-25T22:25:26.216Z,48.80
2019-01-25T22:30:26.268Z,45.33
2019-01-25T22:35:23.776Z,41.43
2019-01-25T22:40:24.681Z,48.13
2019-01-25T22:45:24.674Z,49.30
2019-01-25T22:50:27.665Z,46.57
2019-01-25T22:55:25.056Z,45.30
2019-01-25T23:00:49.130Z,44.27
2019-01-25T23:06:11.441Z,45.93
2019-01-25T23:11:08.456Z,42.77
2019-01-25T23:16:06.403Z,48.73
2019-01-25T23:21:03.644Z,49.77
2019-01-25T23:26:00.600Z,45.93
2019-01-25T23:30:57.529Z,52.73
2019-01-25T23:35:56.100Z,48.00
2019-01-25T23:40:53.029Z,47.20
2019-01-25T23:45:49.971Z,48.10
2019-01-25T23:50:46.979Z,49.63
2019-01-25T23:55:44.373Z,47.47
